Terminal Aerodrome Forecast
Issued by NWS

Home | Current Version | Previous Version | Graphics & Text | Print | Product List | Glossary On
Versions: 1 2 3 4 5 6 7 8 9 10 11 12 13 14 15 16 17 18 19 20 21 22 23 24 25 26 27 28
000
FTUS43 KLOT 210539
TAFGYY
TAF
KGYY 210539Z 2106/2206 VRB03KT P6SM OVC015
     FM210700 VRB03KT 5SM BR OVC008
     FM211000 16006KT 3SM -DZ BR OVC007
      TEMPO 2110/2113 1SM BR OVC004
     FM211400 15005KT 1SM -DZ BR OVC003
     FM212100 11004KT 1 1/2SM -DZ BR OVC003=

USA.gov is the U.S. government's official web portal to all federal, state and local government web resources and services.